createdAt,value
2023-05-20T00:00:45.483Z,100717.66
2023-05-20T00:03:16.956Z,100720.88
2023-05-20T00:05:47.056Z,100723.25
2023-05-20T00:08:21.729Z,100714.81
2023-05-20T00:10:54.787Z,100720.19
2023-05-20T00:13:25.971Z,100719.72
2023-05-20T00:15:55.553Z,100721.63
2023-05-20T00:18:26.272Z,100716.88
2023-05-20T00:20:56.351Z,100718.66
2023-05-20T00:23:25.066Z,100715.34
2023-05-20T00:25:59.811Z,100698.81
2023-05-20T00:28:31.738Z,100704.72
2023-05-20T00:31:02.346Z,100693.19
2023-05-20T00:33:31.962Z,100710.75
2023-05-20T00:36:01.818Z,100693.88
2023-05-20T00:38:38.316Z,100707.34
2023-05-20T00:41:14.028Z,100715.53
2023-05-20T00:43:42.949Z,100707.66
2023-05-20T00:46:12.663Z,100702.69
2023-05-20T00:48:45.777Z,100684.81
2023-05-20T00:51:15.615Z,100686.97
2023-05-20T00:53:46.635Z,100698.25
2023-05-20T00:56:19.142Z,100702.19
2023-05-20T00:58:48.660Z,100665.72
2023-05-20T01:01:20.590Z,100680.31
2023-05-20T01:03:50.549Z,100699.41
2023-05-20T01:06:19.740Z,100699.31
2023-05-20T01:08:49.179Z,100696.47
2023-05-20T01:11:31.624Z,100698.59
2023-05-20T01:14:04.937Z,100698.59
2023-05-20T01:16:37.070Z,100693.63
2023-05-20T01:19:22.559Z,100705.28
2023-05-20T01:21:54.735Z,100697.13
2023-05-20T01:24:27.929Z,100695.22
2023-05-20T01:27:00.453Z,100688.22
2023-05-20T01:29:32.818Z,100694.28
2023-05-20T01:32:05.186Z,100682.97
2023-05-20T01:34:35.013Z,100677.44
2023-05-20T01:37:06.340Z,100689.38
2023-05-20T01:39:41.683Z,100683.09
2023-05-20T01:42:11.669Z,100685.16
2023-05-20T01:44:41.737Z,100684.63
2023-05-20T01:47:12.942Z,100677.81
2023-05-20T01:49:41.480Z,100658.44
2023-05-20T01:52:10.269Z,100676.50
2023-05-20T01:54:40.580Z,100666.22
2023-05-20T01:57:08.831Z,100660.63
2023-05-20T01:59:37.434Z,100664.78
2023-05-20T02:02:06.646Z,100660.50
2023-05-20T02:04:35.491Z,100660.38
2023-05-20T02:07:04.446Z,100652.97
2023-05-20T02:09:32.935Z,100656.81
2023-05-20T02:12:02.241Z,100657.88
2023-05-20T02:14:30.891Z,100649.00
2023-05-20T02:16:59.702Z,100641.78
2023-05-20T02:19:33.671Z,100653.53
2023-05-20T02:22:01.565Z,100656.69
2023-05-20T02:24:29.904Z,100656.97
2023-05-20T02:26:59.287Z,100650.78
2023-05-20T02:31:51.111Z,100657.38
2023-05-20T02:34:22.900Z,100660.81
2023-05-20T02:36:51.818Z,100655.09
2023-05-20T02:39:19.657Z,100652.09
2023-05-20T02:41:48.005Z,100658.84
2023-05-20T02:44:17.174Z,100663.28
2023-05-20T02:46:45.730Z,100653.75
2023-05-20T02:49:17.687Z,100658.50
2023-05-20T02:51:45.876Z,100654.38
2023-05-20T02:54:13.707Z,100653.31
2023-05-20T02:56:41.534Z,100658.41
2023-05-20T02:59:09.471Z,100652.09
2023-05-20T03:01:37.832Z,100659.09
2023-05-20T03:04:06.518Z,100657.22
2023-05-20T03:06:36.375Z,100646.78
2023-05-20T03:09:04.345Z,100660.63
2023-05-20T03:11:32.416Z,100644.28
2023-05-20T03:14:01.778Z,100649.81
2023-05-20T03:16:33.699Z,100639.00
2023-05-20T03:19:02.107Z,100639.25
2023-05-20T03:21:31.405Z,100633.75
2023-05-20T03:24:00.780Z,100631.66
2023-05-20T03:26:30.156Z,100632.94
2023-05-20T03:28:58.213Z,100628.50
2023-05-20T03:31:28.901Z,100629.59
2023-05-20T03:33:58.469Z,100625.63
2023-05-20T03:36:26.559Z,100613.09
2023-05-20T03:38:54.589Z,100623.91
2023-05-20T03:41:26.197Z,100613.31
2023-05-20T03:43:55.006Z,100613.44
2023-05-20T03:46:23.216Z,100611.41
2023-05-20T03:48:51.883Z,100617.50
2023-05-20T03:51:19.832Z,100608.97
2023-05-20T03:53:48.029Z,100629.03
2023-05-20T03:56:16.979Z,100626.41
2023-05-20T03:58:48.576Z,100625.47
2023-05-20T04:01:18.337Z,100635.25
2023-05-20T04:03:46.732Z,100635.22
2023-05-20T04:06:15.587Z,100634.91
2023-05-20T04:08:44.947Z,100635.50
2023-05-20T04:11:17.104Z,100637.88
2023-05-20T04:13:46.549Z,100627.78
2023-05-20T04:16:15.070Z,100617.34
2023-05-20T04:18:46.101Z,100629.81
2023-05-20T04:21:15.360Z,100603.66
2023-05-20T04:23:46.498Z,100625.78
2023-05-20T04:26:16.827Z,100634.56
2023-05-20T04:28:49.163Z,100638.13
2023-05-20T04:31:19.564Z,100633.25
2023-05-20T04:33:51.701Z,100633.03
2023-05-20T04:36:21.692Z,100642.53
2023-05-20T04:38:50.440Z,100634.78
2023-05-20T04:41:19.704Z,100639.66
2023-05-20T04:43:50.540Z,100634.91
2023-05-20T04:46:21.185Z,100635.16
2023-05-20T04:48:49.422Z,100640.25
2023-05-20T04:51:18.052Z,100635.88
2023-05-20T04:53:46.275Z,100623.84
2023-05-20T04:56:15.806Z,100628.84
2023-05-20T04:58:46.330Z,100628.97
2023-05-20T05:01:16.016Z,100621.91
2023-05-20T05:03:44.122Z,100614.78
2023-05-20T05:06:13.126Z,100627.16
2023-05-20T05:08:41.642Z,100624.94
2023-05-20T05:11:13.406Z,100619.88
2023-05-20T05:13:47.181Z,100609.16
2023-05-20T05:16:17.735Z,100625.13
2023-05-20T05:18:47.483Z,100612.53
2023-05-20T05:21:16.367Z,100604.88
2023-05-20T05:23:44.375Z,100598.50
2023-05-20T05:26:12.713Z,100597.34
2023-05-20T05:28:43.552Z,100598.03
2023-05-20T05:31:12.790Z,100604.13
2023-05-20T05:33:42.021Z,100606.50
2023-05-20T05:36:10.225Z,100602.53
2023-05-20T05:38:39.635Z,100594.88
2023-05-20T05:41:07.589Z,100595.66
2023-05-20T05:43:37.586Z,100596.53
2023-05-20T05:46:10.741Z,100591.38
2023-05-20T05:48:41.890Z,100575.41
2023-05-20T05:51:14.243Z,100608.34
2023-05-20T05:53:43.632Z,100590.66
2023-05-20T05:56:12.051Z,100599.13
2023-05-20T05:58:40.726Z,100590.94
2023-05-20T06:01:11.569Z,100602.03
2023-05-20T06:03:40.154Z,100604.63
2023-05-20T06:06:13.409Z,100603.00
2023-05-20T06:08:42.456Z,100609.84
2023-05-20T06:11:10.941Z,100598.97
2023-05-20T06:13:42.937Z,100607.44
2023-05-20T06:16:12.123Z,100602.41
2023-05-20T06:18:43.348Z,100600.22
2023-05-20T06:21:13.480Z,100585.22
2023-05-20T06:23:41.320Z,100599.34
2023-05-20T06:26:09.825Z,100588.97
2023-05-20T06:28:38.625Z,100595.19
2023-05-20T06:31:10.595Z,100600.84
2023-05-20T06:33:41.824Z,100601.91
2023-05-20T06:36:10.142Z,100597.78
2023-05-20T06:38:41.648Z,100593.53
2023-05-20T06:41:10.961Z,100592.78
2023-05-20T06:44:30.444Z,100588.19
2023-05-20T06:47:27.075Z,100583.53
2023-05-20T06:49:57.575Z,100574.47
2023-05-20T06:52:27.401Z,100584.75
2023-05-20T06:54:59.471Z,100577.81
2023-05-20T06:57:29.263Z,100580.47
2023-05-20T07:00:00.787Z,100568.19
2023-05-20T07:02:30.250Z,100577.28
2023-05-20T07:04:59.607Z,100576.97
2023-05-20T07:07:37.744Z,100582.06
2023-05-20T07:10:10.323Z,100580.13
2023-05-20T07:13:01.785Z,100579.94
2023-05-20T07:15:38.976Z,100573.53
2023-05-20T07:18:12.999Z,100579.41
2023-05-20T07:20:47.458Z,100567.09
2023-05-20T07:23:18.772Z,100543.69
2023-05-20T07:26:13.896Z,100573.16
2023-05-20T07:28:46.889Z,100569.16
2023-05-20T07:31:16.590Z,100561.44
2023-05-20T07:34:11.427Z,100560.59
2023-05-20T07:36:40.391Z,100561.47
2023-05-20T07:39:13.382Z,100571.31
2023-05-20T07:41:49.857Z,100562.00
2023-05-20T07:44:20.232Z,100546.53
2023-05-20T07:46:49.661Z,100539.50
2023-05-20T07:49:25.613Z,100545.06
2023-05-20T07:51:54.145Z,100541.91
2023-05-20T07:54:34.613Z,100517.50
2023-05-20T07:57:07.767Z,100528.94
2023-05-20T07:59:39.041Z,100523.81
2023-05-20T08:02:11.259Z,100525.78
2023-05-20T08:04:40.128Z,100525.69
2023-05-20T08:07:11.543Z,100519.56
2023-05-20T08:09:42.538Z,100533.41
2023-05-20T08:12:16.756Z,100530.50
2023-05-20T08:14:46.679Z,100532.88
2023-05-20T08:17:19.929Z,100515.16
2023-05-20T08:19:51.243Z,100526.50
2023-05-20T08:22:24.423Z,100531.16
2023-05-20T08:27:43.810Z,100527.56
2023-05-20T08:30:15.362Z,100529.47
2023-05-20T08:32:58.721Z,100514.06
2023-05-20T08:35:42.078Z,100519.84
2023-05-20T08:38:22.566Z,100477.13
2023-05-20T08:41:13.921Z,100508.84
2023-05-20T08:43:55.601Z,100502.50
2023-05-20T08:46:29.457Z,100511.50
2023-05-20T08:49:04.434Z,100497.25
2023-05-20T08:51:35.692Z,100500.03
2023-05-20T08:54:08.467Z,100500.78
2023-05-20T08:56:42.180Z,100493.97
2023-05-20T08:59:19.284Z,100490.66
2023-05-20T09:01:50.973Z,100510.50
2023-05-20T09:04:30.920Z,100482.13
2023-05-20T09:07:17.492Z,100513.25
2023-05-20T09:09:51.364Z,100502.56
2023-05-20T09:12:26.242Z,100510.44
2023-05-20T09:14:59.220Z,100502.88
2023-05-20T09:17:32.164Z,100504.66
2023-05-20T09:20:04.674Z,100510.34
2023-05-20T09:22:43.407Z,100501.81
2023-05-20T09:25:33.994Z,100498.41
2023-05-20T09:28:07.136Z,100503.81
2023-05-20T09:31:06.159Z,100503.53
2023-05-20T09:33:58.016Z,100491.97
2023-05-20T09:36:57.665Z,100487.25
2023-05-20T09:39:37.034Z,100488.63
2023-05-20T09:42:18.724Z,100491.06
2023-05-20T09:44:50.883Z,100487.53
2023-05-20T09:47:22.767Z,100498.16
2023-05-20T09:50:03.938Z,100482.50
2023-05-20T09:52:32.481Z,100468.38
2023-05-20T09:55:06.313Z,100492.00
2023-05-20T09:57:37.515Z,100486.53
2023-05-20T10:00:11.232Z,100480.38
2023-05-20T10:02:45.706Z,100489.38
2023-05-20T10:05:20.509Z,100491.16
2023-05-20T10:08:12.879Z,100486.88
2023-05-20T10:10:52.015Z,100483.34
2023-05-20T10:13:41.966Z,100482.56
2023-05-20T10:16:30.636Z,100493.34
2023-05-20T10:19:12.045Z,100464.81
2023-05-20T10:21:43.575Z,100477.50
2023-05-20T10:24:13.734Z,100466.56
2023-05-20T10:26:46.135Z,100479.75
2023-05-20T10:29:19.466Z,100470.25
2023-05-20T10:31:51.148Z,100471.09
2023-05-20T10:34:26.024Z,100473.38
2023-05-20T10:37:00.935Z,100465.59
2023-05-20T10:39:32.731Z,100461.97
2023-05-20T10:42:16.324Z,100461.03
2023-05-20T10:45:13.211Z,100457.69
2023-05-20T10:47:54.750Z,100442.03
2023-05-20T10:50:31.587Z,100461.09
2023-05-20T10:53:34.396Z,100440.41
2023-05-20T10:56:04.070Z,100444.75
2023-05-20T10:58:41.923Z,100448.22
2023-05-20T11:01:12.629Z,100445.66
2023-05-20T11:03:45.085Z,100439.50
2023-05-20T11:06:18.228Z,100436.69
2023-05-20T11:08:47.858Z,100440.47
2023-05-20T11:11:20.574Z,100433.41
2023-05-20T11:13:52.336Z,100437.59
2023-05-20T11:16:23.582Z,100424.16
2023-05-20T11:18:53.678Z,100431.84
2023-05-20T11:21:28.604Z,100432.25
2023-05-20T11:23:59.734Z,100429.59
2023-05-20T11:26:28.307Z,100439.13
2023-05-20T11:29:01.439Z,100425.00
2023-05-20T11:31:30.079Z,100427.34
2023-05-20T11:33:58.172Z,100433.63
2023-05-20T11:36:28.892Z,100428.16
2023-05-20T11:38:58.973Z,100432.91
2023-05-20T11:41:28.638Z,100418.56
2023-05-20T11:43:59.641Z,100426.09
2023-05-20T11:46:29.434Z,100425.47
2023-05-20T11:49:12.416Z,100416.63
2023-05-20T11:51:46.236Z,100411.25
2023-05-20T11:54:15.581Z,100409.47
2023-05-20T11:56:46.252Z,100400.59
2023-05-20T11:59:21.027Z,100403.47
2023-05-20T12:01:49.628Z,100409.84
2023-05-20T12:04:18.512Z,100409.66
2023-05-20T12:06:48.366Z,100392.50
2023-05-20T12:09:18.620Z,100409.72
2023-05-20T12:11:48.171Z,100403.63
2023-05-20T12:14:16.593Z,100405.56
2023-05-20T12:16:46.724Z,100382.13
2023-05-20T12:19:16.647Z,100379.59
2023-05-20T12:21:47.264Z,100380.38
2023-05-20T12:24:17.796Z,100393.59
2023-05-20T12:26:46.445Z,100390.31
2023-05-20T12:29:14.558Z,100392.03
2023-05-20T12:31:43.535Z,100391.97
2023-05-20T12:34:14.373Z,100392.75
2023-05-20T12:36:51.545Z,100377.78
2023-05-20T12:39:23.566Z,100387.16
2023-05-20T12:41:52.175Z,100377.19
2023-05-20T12:44:25.517Z,100364.84
2023-05-20T12:46:53.574Z,100371.72
2023-05-20T12:49:21.934Z,100380.84
2023-05-20T12:51:50.238Z,100376.81
2023-05-20T12:54:28.593Z,100373.22
2023-05-20T12:56:59.489Z,100356.81
2023-05-20T12:59:29.340Z,100369.81
2023-05-20T13:01:57.709Z,100346.06
2023-05-20T13:04:29.900Z,100332.56
2023-05-20T13:06:59.212Z,100351.53
2023-05-20T13:09:28.989Z,100359.16
2023-05-20T13:11:58.690Z,100328.44
2023-05-20T13:14:33.188Z,100341.06
2023-05-20T13:17:01.264Z,100351.75
2023-05-20T13:19:30.811Z,100350.69
2023-05-20T13:22:00.038Z,100357.53
2023-05-20T13:24:31.003Z,100359.53
2023-05-20T13:27:01.382Z,100354.44
2023-05-20T13:29:32.518Z,100352.13
2023-05-20T13:32:03.136Z,100351.81
2023-05-20T13:34:37.841Z,100335.34
2023-05-20T13:37:07.227Z,100331.34
2023-05-20T13:39:37.555Z,100332.97
2023-05-20T13:42:10.167Z,100337.66
2023-05-20T13:44:42.015Z,100347.97
2023-05-20T13:47:10.492Z,100345.06
2023-05-20T13:49:40.551Z,100330.19
2023-05-20T13:52:12.849Z,100314.44
2023-05-20T13:54:46.683Z,100324.94
2023-05-20T13:57:15.285Z,100310.09
2023-05-20T13:59:46.949Z,100308.16
2023-05-20T14:02:15.810Z,100308.47
2023-05-20T14:04:45.573Z,100313.13
2023-05-20T14:07:14.734Z,100285.31
2023-05-20T14:09:44.541Z,100299.59
2023-05-20T14:12:14.374Z,100290.00
2023-05-20T14:14:44.105Z,100297.91
2023-05-20T14:17:12.745Z,100300.13
2023-05-20T14:19:41.963Z,100278.44
2023-05-20T14:22:14.952Z,100268.09
2023-05-20T14:24:58.075Z,100284.66
2023-05-20T14:27:25.996Z,100286.97
2023-05-20T14:29:56.759Z,100289.00
2023-05-20T14:32:25.152Z,100291.25
2023-05-20T14:34:56.970Z,100283.88
2023-05-20T14:37:27.220Z,100289.38
2023-05-20T14:39:57.326Z,100269.28
2023-05-20T14:42:26.526Z,100274.88
2023-05-20T14:44:54.879Z,100277.56
2023-05-20T14:47:23.988Z,100267.63
2023-05-20T14:49:52.768Z,100272.19
2023-05-20T14:52:21.259Z,100275.16
2023-05-20T14:54:51.078Z,100260.53
2023-05-20T14:57:21.716Z,100258.44
2023-05-20T14:59:54.234Z,100263.94
2023-05-20T15:03:01.475Z,100269.56
2023-05-20T15:05:29.602Z,100267.31
2023-05-20T15:08:14.118Z,100259.84
2023-05-20T15:10:42.762Z,100267.16
2023-05-20T15:13:18.769Z,100258.75
2023-05-20T15:15:49.971Z,100238.94
2023-05-20T15:18:19.158Z,100258.97
2023-05-20T15:20:47.893Z,100257.38
2023-05-20T15:23:24.091Z,100248.97
2023-05-20T15:25:55.685Z,100260.28
2023-05-20T15:28:27.244Z,100251.72
2023-05-20T15:31:07.334Z,100243.66
2023-05-20T15:33:47.940Z,100257.31
2023-05-20T15:36:19.228Z,100231.56
2023-05-20T15:38:47.614Z,100247.00
2023-05-20T15:41:23.881Z,100240.66
2023-05-20T15:44:06.308Z,100221.19
2023-05-20T15:46:37.857Z,100227.63
2023-05-20T15:49:07.646Z,100232.44
2023-05-20T15:51:38.331Z,100237.28
2023-05-20T15:54:14.413Z,100241.41
2023-05-20T15:56:49.185Z,100225.22
2023-05-20T15:59:37.566Z,100219.34
2023-05-20T16:02:10.031Z,100228.47
2023-05-20T16:04:41.989Z,100235.25
2023-05-20T16:07:24.693Z,100232.97
2023-05-20T16:09:54.077Z,100221.09
2023-05-20T16:12:26.101Z,100238.41
2023-05-20T16:15:01.790Z,100254.72
2023-05-20T16:17:32.270Z,100213.06
2023-05-20T16:20:12.974Z,100250.66
2023-05-20T16:22:55.881Z,100260.59
2023-05-20T16:25:26.389Z,100269.59
2023-05-20T16:27:59.559Z,100248.31
2023-05-20T16:30:31.664Z,100255.66
2023-05-20T16:33:00.337Z,100248.78
2023-05-20T16:35:31.114Z,100262.94
2023-05-20T16:38:03.058Z,100247.38
2023-05-20T16:40:34.427Z,100246.38
2023-05-20T16:43:04.389Z,100246.81
2023-05-20T16:45:35.608Z,100251.53
2023-05-20T16:48:05.579Z,100236.22
2023-05-20T16:50:40.587Z,100249.13
2023-05-20T16:53:11.037Z,100247.56
2023-05-20T16:55:44.131Z,100240.91
2023-05-20T16:58:40.146Z,100263.41
2023-05-20T17:01:11.112Z,100256.31
2023-05-20T17:03:44.611Z,100268.13
2023-05-20T17:06:13.406Z,100259.81
2023-05-20T17:08:43.585Z,100243.13
2023-05-20T17:11:14.635Z,100269.22
2023-05-20T17:13:45.718Z,100255.59
2023-05-20T17:16:16.972Z,100259.34
2023-05-20T17:18:46.430Z,100266.34
2023-05-20T17:21:15.824Z,100269.94
2023-05-20T17:26:37.262Z,100275.41
2023-05-20T17:29:05.805Z,100282.81
2023-05-20T17:31:36.130Z,100269.13
2023-05-20T17:34:11.352Z,100260.72
2023-05-20T17:36:43.372Z,100267.06
2023-05-20T17:39:19.755Z,100281.94
2023-05-20T17:41:54.833Z,100280.03
2023-05-20T17:44:25.141Z,100276.44
2023-05-20T17:47:03.224Z,100285.94
2023-05-20T17:49:32.874Z,100285.06
2023-05-20T17:52:04.612Z,100253.38
2023-05-20T17:54:37.318Z,100287.03
2023-05-20T17:57:08.901Z,100281.47
2023-05-20T17:59:45.712Z,100291.16
2023-05-20T18:02:17.187Z,100296.41
2023-05-20T18:04:47.821Z,100294.88
2023-05-20T18:07:19.253Z,100307.41
2023-05-20T18:09:48.269Z,100299.72
2023-05-20T18:12:46.384Z,100307.91
2023-05-20T18:15:17.934Z,100310.44
2023-05-20T18:17:58.976Z,100304.09
2023-05-20T18:20:28.993Z,100290.13
2023-05-20T18:22:59.503Z,100310.22
2023-05-20T18:25:27.776Z,100304.50
2023-05-20T18:27:59.330Z,100282.19
2023-05-20T18:30:30.707Z,100304.16
2023-05-20T18:33:08.588Z,100272.59
2023-05-20T18:35:39.448Z,100253.59
2023-05-20T18:38:11.004Z,100296.56
2023-05-20T18:40:39.351Z,100312.81
2023-05-20T18:43:10.895Z,100297.13
2023-05-20T18:45:40.807Z,100246.19
2023-05-20T18:48:26.552Z,100304.28
2023-05-20T18:50:58.520Z,100307.59
2023-05-20T18:53:31.627Z,100313.31
2023-05-20T18:56:13.568Z,100304.28
2023-05-20T18:59:10.956Z,100308.66
2023-05-20T19:01:40.484Z,100272.88
2023-05-20T19:04:13.703Z,100304.78
2023-05-20T19:06:46.276Z,100302.03
2023-05-20T19:09:29.353Z,100301.47
2023-05-20T19:12:23.012Z,100269.28
2023-05-20T19:15:04.144Z,100307.78
2023-05-20T19:17:42.332Z,100286.03
2023-05-20T19:20:22.955Z,100283.00
2023-05-20T19:22:55.133Z,100292.09
2023-05-20T19:25:23.856Z,100298.13
2023-05-20T19:27:57.163Z,100311.34
2023-05-20T19:30:37.989Z,100314.06
2023-05-20T19:33:07.075Z,100301.66
2023-05-20T19:35:39.307Z,100317.38
2023-05-20T19:40:53.656Z,100316.50
2023-05-20T19:43:26.243Z,100258.94
2023-05-20T19:46:03.227Z,100324.22
2023-05-20T19:48:31.953Z,100317.78
2023-05-20T19:51:04.722Z,100316.50
2023-05-20T19:53:32.687Z,100243.16
2023-05-20T19:56:02.651Z,100305.59
2023-05-20T19:58:34.168Z,100318.84
2023-05-20T20:01:06.729Z,100312.50
2023-05-20T20:03:38.223Z,100304.56
2023-05-20T20:06:11.504Z,100300.41
2023-05-20T20:08:43.915Z,100316.91
2023-05-20T20:11:15.147Z,100292.38
2023-05-20T20:13:46.364Z,100315.50
2023-05-20T20:16:27.226Z,100284.63
2023-05-20T20:18:57.374Z,100300.28
2023-05-20T20:21:31.133Z,100287.09
2023-05-20T20:24:00.263Z,100307.19
2023-05-20T20:26:32.249Z,100312.28
2023-05-20T20:29:03.842Z,100313.25
2023-05-20T20:31:32.710Z,100290.97
2023-05-20T20:34:01.794Z,100284.63
2023-05-20T20:36:32.161Z,100302.22
2023-05-20T20:39:02.825Z,100298.84
2023-05-20T20:41:33.010Z,100304.44
2023-05-20T20:44:03.477Z,100284.59
2023-05-20T20:46:41.864Z,100303.06
2023-05-20T20:49:15.519Z,100296.66
2023-05-20T20:51:46.357Z,100300.00
2023-05-20T20:54:15.940Z,100296.66
2023-05-20T20:56:50.073Z,100287.84
2023-05-20T20:59:26.226Z,100293.81
2023-05-20T21:01:57.844Z,100293.53
2023-05-20T21:04:30.133Z,100288.88
2023-05-20T21:07:02.135Z,100285.09
2023-05-20T21:09:37.390Z,100277.94
2023-05-20T21:12:10.215Z,100253.25
2023-05-20T21:14:39.854Z,100272.38
2023-05-20T21:17:09.500Z,100277.53
2023-05-20T21:19:40.857Z,100242.03
2023-05-20T21:22:15.112Z,100265.25
2023-05-20T21:24:45.655Z,100271.72
2023-05-20T21:27:17.177Z,100283.63
2023-05-20T21:29:53.724Z,100258.47
2023-05-20T21:32:23.958Z,100269.66
2023-05-20T21:35:02.085Z,100265.59
2023-05-20T21:37:38.434Z,100269.78
2023-05-20T21:40:10.559Z,100272.22
2023-05-20T21:42:42.086Z,100273.53
2023-05-20T21:45:13.820Z,100268.34
2023-05-20T21:47:49.290Z,100266.63
2023-05-20T21:50:20.317Z,100262.53
2023-05-20T21:52:57.922Z,100265.28
2023-05-20T21:55:26.221Z,100261.13
2023-05-20T21:58:06.692Z,100258.66
2023-05-20T22:00:36.749Z,100259.13
2023-05-20T22:03:09.888Z,100257.03
2023-05-20T22:05:40.102Z,100258.31
2023-05-20T22:08:13.992Z,100255.38
2023-05-20T22:10:53.392Z,100259.78
2023-05-20T22:13:26.574Z,100227.72
2023-05-20T22:15:58.709Z,100247.50
2023-05-20T22:18:32.902Z,100246.75
2023-05-20T22:21:10.254Z,100248.16
2023-05-20T22:23:44.257Z,100207.56
2023-05-20T22:26:20.025Z,100242.00
2023-05-20T22:28:48.851Z,100241.44
2023-05-20T22:31:27.957Z,100235.44
2023-05-20T22:33:59.231Z,100229.59
2023-05-20T22:36:36.318Z,100222.50
2023-05-20T22:39:10.602Z,100192.75
2023-05-20T22:41:41.730Z,100216.59
2023-05-20T22:44:24.791Z,100218.91
2023-05-20T22:46:54.012Z,100219.22
2023-05-20T22:49:27.016Z,100216.97
2023-05-20T22:52:00.304Z,100221.13
2023-05-20T22:54:31.034Z,100214.94
2023-05-20T22:57:03.203Z,100211.91
2023-05-20T22:59:36.893Z,100201.09
2023-05-20T23:02:09.222Z,100203.88
2023-05-20T23:04:41.751Z,100195.66
2023-05-20T23:07:14.703Z,100181.53
2023-05-20T23:09:44.407Z,100186.19
2023-05-20T23:12:13.090Z,100189.81
2023-05-20T23:14:45.258Z,100187.56
2023-05-20T23:17:18.294Z,100189.59
2023-05-20T23:19:49.199Z,100175.28
2023-05-20T23:22:23.760Z,100187.22
2023-05-20T23:24:58.583Z,100175.78
2023-05-20T23:27:28.777Z,100169.69
2023-05-20T23:29:57.285Z,100170.81
2023-05-20T23:32:32.289Z,100177.06
2023-05-20T23:35:03.498Z,100174.13
2023-05-20T23:37:34.747Z,100167.06
2023-05-20T23:40:11.324Z,100168.03
2023-05-20T23:42:44.117Z,100178.16
2023-05-20T23:45:16.256Z,100166.38
2023-05-20T23:47:58.693Z,100179.75
2023-05-20T23:50:27.989Z,100166.72
2023-05-20T23:52:59.514Z,100160.97
2023-05-20T23:55:29.882Z,100161.72
2023-05-20T23:58:06.929Z,100152.84
